Time;durP1;ratioP1;P1;durP2;ratioP2;P2;SDS_P1;SDS_P2;PMS_P1;PMS_P2;Temp;Humidity;BMP_temperature;BMP_pressure;BME280_temperature;BME280_humidity;BME280_pressure;Samples;Min_cycle;Max_cycle;Signal;HPM_P1;HPM_P2
2021/08/08 00:00:22;;;;;;;0.77;0.77;;;;;;;10.83;100.00;92605.09;2092673;28;20035;-84
2021/08/08 00:01:23;;;;;;;6.20;0.85;;;;;;;10.84;100.00;92604.69;2092503;28;20062;-85
2021/08/08 00:02:24;;;;;;;0.82;0.73;;;;;;;10.83;100.00;92597.81;2092869;28;20033;-85
2021/08/08 00:03:25;;;;;;;2.88;0.82;;;;;;;10.81;100.00;92597.50;2110100;28;20055;-83
2021/08/08 00:04:26;;;;;;;2.47;0.80;;;;;;;10.81;100.00;92594.09;2101196;28;20423;-84
2021/08/08 00:05:27;;;;;;;2.25;1.10;;;;;;;10.81;100.00;92594.84;2100546;28;20115;-83
2021/08/08 00:06:29;;;;;;;2.53;0.98;;;;;;;10.97;100.00;92599.28;2100784;28;20032;-84
2021/08/08 00:07:30;;;;;;;3.72;1.00;;;;;;;10.93;100.00;92597.91;2092865;28;20033;-83
2021/08/08 00:08:31;;;;;;;5.03;2.47;;;;;;;10.95;100.00;92600.91;2095795;28;20055;-85
2021/08/08 00:09:32;;;;;;;1.20;0.95;;;;;;;10.91;100.00;92598.34;2096810;28;20038;-83
2021/08/08 00:10:33;;;;;;;4.88;0.70;;;;;;;10.89;100.00;92605.28;2092603;28;20020;-84
2021/08/08 00:11:34;;;;;;;1.77;0.68;;;;;;;10.89;100.00;92603.38;2101002;28;20397;-82
2021/08/08 00:12:37;;;;;;;2.78;0.90;;;;;;;10.93;100.00;92605.94;2108835;28;20028;-83
2021/08/08 00:13:37;;;;;;;2.05;0.88;;;;;;;10.92;100.00;92596.41;2097642;28;20051;-84
2021/08/08 00:14:38;;;;;;;1.15;0.73;;;;;;;10.90;100.00;92598.78;2112894;28;20027;-82
2021/08/08 00:15:39;;;;;;;1.45;0.80;;;;;;;10.90;100.00;92593.44;2117935;27;20030;-83
2021/08/08 00:16:40;;;;;;;3.60;0.90;;;;;;;10.90;100.00;92596.84;2100883;28;20032;-82
2021/08/08 00:17:42;;;;;;;4.47;0.80;;;;;;;10.92;100.00;92589.13;2092340;28;20059;-83
2021/08/08 00:18:43;;;;;;;3.00;1.00;;;;;;;10.91;100.00;92595.66;2110173;28;20076;-83
2021/08/08 00:19:43;;;;;;;2.05;0.70;;;;;;;10.88;100.00;92595.78;2111005;28;20520;-83
2021/08/08 00:20:45;;;;;;;1.20;0.88;;;;;;;10.88;100.00;92595.78;2096714;28;20111;-85
2021/08/08 00:21:45;;;;;;;3.42;0.80;;;;;;;10.88;100.00;92595.78;2100991;28;20019;-82
2021/08/08 00:22:46;;;;;;;2.28;0.80;;;;;;;10.82;100.00;92590.22;2119876;27;20019;-85
2021/08/08 00:23:47;;;;;;;2.20;1.05;;;;;;;10.80;100.00;92590.66;2117236;27;20031;-84
2021/08/08 00:24:48;;;;;;;3.20;1.00;;;;;;;10.78;100.00;92584.25;2100894;28;20029;-83
2021/08/08 00:25:50;;;;;;;1.13;0.77;;;;;;;10.78;100.00;92594.94;2092601;28;20031;-83
2021/08/08 00:26:51;;;;;;;3.10;1.10;;;;;;;10.78;100.00;92585.00;2092649;28;20053;-84
2021/08/08 00:27:53;;;;;;;4.50;1.00;;;;;;;10.77;100.00;92582.75;2101106;28;20028;-83
2021/08/08 00:28:53;;;;;;;2.05;0.93;;;;;;;10.74;100.00;92592.38;2109235;27;20023;-85
2021/08/08 00:29:54;;;;;;;4.32;1.10;;;;;;;10.76;100.00;92591.97;2108663;28;20443;-81
2021/08/08 00:30:56;;;;;;;2.10;0.90;;;;;;;10.72;100.00;92594.00;2101089;28;20082;-84
2021/08/08 00:31:57;;;;;;;1.02;0.80;;;;;;;10.68;100.00;92598.69;2093633;28;20025;-83
2021/08/08 00:32:58;;;;;;;2.55;0.82;;;;;;;10.83;100.00;92597.06;2104337;28;20059;-83
2021/08/08 00:33:59;;;;;;;2.47;0.80;;;;;;;10.77;100.00;92588.84;2092169;28;20039;-82
2021/08/08 00:35:00;;;;;;;3.65;1.02;;;;;;;10.74;100.00;92589.69;2100246;28;20027;-84
2021/08/08 00:36:01;;;;;;;3.42;0.98;;;;;;;10.68;100.00;92590.69;2100747;28;20028;-83
2021/08/08 00:37:02;;;;;;;4.43;1.10;;;;;;;10.71;100.00;92593.25;2092313;28;20081;-86
2021/08/08 00:38:03;;;;;;;2.50;0.88;;;;;;;10.77;100.00;92598.78;2104972;28;20028;-84
2021/08/08 00:39:04;;;;;;;1.80;0.75;;;;;;;10.72;100.00;92588.66;2113351;28;20030;-83
2021/08/08 00:40:06;;;;;;;5.15;2.70;;;;;;;10.68;100.00;92590.69;2113212;28;20092;-85
2021/08/08 00:41:07;;;;;;;1.40;0.68;;;;;;;10.64;100.00;92592.72;2104804;28;20106;-83
2021/08/08 00:42:08;;;;;;;4.32;0.70;;;;;;;10.61;100.00;92593.56;2101472;28;20397;-83
2021/08/08 00:43:10;;;;;;;2.97;0.90;;;;;;;10.57;100.00;92589.06;2096760;28;20060;-84
2021/08/08 00:44:11;;;;;;;2.25;0.70;;;;;;;10.56;100.00;92608.94;2089521;28;20063;-82
2021/08/08 00:45:18;;;;;;;4.38;0.90;;;;;;;10.57;100.00;92594.41;2096458;28;20040;-83
2021/08/08 00:46:19;;;;;;;3.58;1.00;;;;;;;10.54;100.00;92605.97;2096997;28;20031;-83
2021/08/08 00:47:20;;;;;;;4.63;1.00;;;;;;;10.56;100.00;92592.91;2095901;28;20028;-82
2021/08/08 00:48:21;;;;;;;1.80;0.70;;;;;;;10.56;100.00;92594.84;2103190;28;20495;-83
2021/08/08 00:49:22;;;;;;;1.77;0.90;;;;;;;10.49;100.00;92595.81;2102217;28;20032;-84
2021/08/08 00:50:23;;;;;;;3.08;1.00;;;;;;;10.49;100.00;92597.72;2103908;28;20055;-82
2021/08/08 00:51:27;;;;;;;0.82;0.80;;;;;;;10.47;100.00;92608.84;2093634;28;20029;-82
2021/08/08 00:52:28;;;;;;;1.02;0.73;;;;;;;10.38;100.00;92608.72;2100780;28;20020;-84
2021/08/08 00:53:30;;;;;;;3.00;0.73;;;;;;;10.43;100.00;92612.78;2108790;28;20024;-83
2021/08/08 00:54:31;;;;;;;1.55;1.02;;;;;;;10.41;100.00;92613.22;2109086;28;20472;-82
2021/08/08 00:55:32;;;;;;;3.38;1.08;;;;;;;10.38;100.00;92621.34;2113100;28;20131;-84
2021/08/08 00:56:33;;;;;;;1.92;1.00;;;;;;;10.37;100.00;92611.84;2092264;28;20028;-84
2021/08/08 00:57:34;;;;;;;2.70;0.80;;;;;;;10.41;100.00;92607.13;2100401;28;20013;-82
2021/08/08 00:58:34;;;;;;;0.85;0.70;;;;;;;10.38;100.00;92616.00;2091798;28;20500;-82
2021/08/08 00:59:35;;;;;;;1.73;0.70;;;;;;;10.33;100.00;92612.69;2091960;28;20380;-85
2021/08/08 01:00:38;;;;;;;1.88;0.70;;;;;;;10.38;100.00;92616.75;2100313;28;20050;-85
2021/08/08 01:01:43;;;;;;;1.90;0.90;;;;;;;10.26;100.00;92620.88;2092687;28;20029;-82
2021/08/08 01:02:52;;;;;;;2.95;0.93;;;;;;;10.26;100.00;92615.53;2094881;28;20114;-82
2021/08/08 01:03:55;;;;;;;2.50;0.73;;;;;;;10.23;100.00;92615.66;2094194;28;20139;-84
2021/08/08 01:05:07;;;;;;;3.80;1.10;;;;;;;10.24;100.00;92615.22;2092673;28;20032;-83
2021/08/08 01:06:39;;;;;;;3.92;1.00;;;;;;;10.28;100.00;92617.81;2099431;28;20024;-84
2021/08/08 01:07:47;;;;;;;10.27;1.00;;;;;;;10.21;100.00;92609.97;2080391;28;20579;-83
2021/08/08 01:08:52;;;;;;;5.00;0.70;;;;;;;10.01;100.00;92613.56;2115129;27;20031;-83
2021/08/08 01:09:56;;;;;;;2.67;0.70;;;;;;;10.05;100.00;92614.22;2116830;27;20027;-84
2021/08/08 01:11:00;;;;;;;1.85;0.70;;;;;;;10.08;100.00;92612.59;2109356;28;20040;-82
2021/08/08 01:12:01;;;;;;;1.05;0.80;;;;;;;10.06;100.00;92614.97;2109275;28;20028;-84
2021/08/08 01:13:04;;;;;;;1.73;0.60;;;;;;;9.99;100.00;92613.22;2096243;28;20079;-83
2021/08/08 01:14:07;;;;;;;2.47;0.73;;;;;;;10.01;100.00;92612.81;2105136;28;20376;-84
2021/08/08 01:15:08;;;;;;;1.83;0.93;;;;;;;9.96;100.00;92619.41;2109505;28;20114;-84
2021/08/08 01:16:09;;;;;;;2.45;0.70;;;;;;;9.93;100.00;92616.84;2100502;28;20481;-82
2021/08/08 01:17:13;;;;;;;3.22;0.80;;;;;;;9.85;100.00;92626.97;2100535;28;20028;-84
2021/08/08 01:18:15;;;;;;;1.00;0.80;;;;;;;10.06;100.00;92617.63;2100604;28;20040;-84
2021/08/08 01:19:21;;;;;;;1.33;1.08;;;;;;;10.18;100.00;92618.81;2100775;28;20025;-83
2021/08/08 01:20:24;;;;;;;2.97;0.70;;;;;;;10.09;100.00;92619.44;2098206;28;20025;-83
2021/08/08 01:21:30;;;;;;;2.70;0.70;;;;;;;10.06;100.00;92626.38;2107409;28;20032;-83
2021/08/08 01:22:32;;;;;;;1.48;0.77;;;;;;;10.06;100.00;92626.38;2093598;28;20103;-82
2021/08/08 01:23:35;;;;;;;2.17;0.70;;;;;;;10.06;100.00;92633.66;2092971;28;20070;-83
2021/08/08 01:24:37;;;;;;;13.02;1.05;;;;;;;10.10;100.00;92628.97;2097121;28;20468;-84
2021/08/08 01:25:39;;;;;;;1.98;0.80;;;;;;;10.04;100.00;92634.06;2101307;28;20035;-83
2021/08/08 01:26:42;;;;;;;1.08;0.63;;;;;;;10.05;100.00;92632.91;2093362;28;20025;-83
2021/08/08 01:27:43;;;;;;;1.13;0.60;;;;;;;10.04;100.00;92633.31;2092880;28;20107;-83
2021/08/08 01:28:44;;;;;;;1.27;0.77;;;;;;;10.03;100.00;92643.25;2105369;28;20169;-82
2021/08/08 01:29:45;;;;;;;1.27;0.60;;;;;;;9.98;100.00;92643.03;2109135;28;20028;-84
2021/08/08 01:30:46;;;;;;;1.15;0.60;;;;;;;9.99;100.00;92639.94;2119704;27;20419;-85
2021/08/08 01:31:52;;;;;;;2.58;0.70;;;;;;;9.96;100.00;92643.44;2100374;28;20170;-83
2021/08/08 01:33:01;;;;;;;1.88;0.60;;;;;;;9.91;100.00;92635.19;2101690;28;20040;-85
2021/08/08 01:34:02;;;;;;;2.45;0.70;;;;;;;9.92;100.00;92642.03;2113279;28;20028;-82
2021/08/08 01:35:04;;;;;;;1.60;0.70;;;;;;;9.83;100.00;92637.31;2099853;28;20495;-83
2021/08/08 01:36:05;;;;;;;1.15;0.50;;;;;;;9.85;100.00;92637.66;2101300;27;20469;-84
2021/08/08 01:37:06;;;;;;;0.60;0.60;;;;;;;9.83;100.00;92632.75;2104536;28;20050;-82
2021/08/08 01:38:08;;;;;;;1.30;0.70;;;;;;;9.92;100.00;92636.69;2107080;28;20027;-85
2021/08/08 01:39:18;;;;;;;9.15;0.82;;;;;;;9.96;100.00;92638.09;2108122;28;20467;-84
2021/08/08 01:40:45;;;;;;;3.03;0.70;;;;;;;9.92;100.00;92640.13;2101369;28;20265;-84
2021/08/08 01:41:55;;;;;;;1.15;0.85;;;;;;;9.95;100.00;92641.19;2105271;27;20024;-85
2021/08/08 01:42:56;;;;;;;;;;;;;;;9.94;100.00;92640.44;2110572;28;20028;-82
2021/08/08 01:43:58;;;;;;;0.70;0.70;;;;;;;9.96;100.00;92637.34;2095789;28;19912;-84
2021/08/08 01:45:02;;;;;;;0.80;0.70;;;;;;;9.99;100.00;92647.94;2092064;28;20031;-84
2021/08/08 01:46:06;;;;;;;1.55;0.73;;;;;;;10.03;100.00;92645.91;2108820;28;20081;-82
2021/08/08 01:47:10;;;;;;;1.48;0.82;;;;;;;10.06;100.00;92647.00;2112902;28;20113;-82
2021/08/08 01:48:12;;;;;;;1.10;0.60;;;;;;;10.10;100.00;92642.31;2105373;28;20020;-84
2021/08/08 01:49:14;;;;;;;2.05;0.68;;;;;;;10.14;100.00;92640.31;2091823;28;20029;-82
2021/08/08 01:50:16;;;;;;;1.83;0.70;;;;;;;10.15;100.00;92646.38;2100499;28;20054;-82
2021/08/08 01:51:17;;;;;;;3.65;0.77;;;;;;;10.13;100.00;92640.72;2100415;28;20032;-83
2021/08/08 01:52:18;;;;;;;1.83;0.77;;;;;;;10.11;100.00;92638.47;2091963;28;20021;-84
2021/08/08 01:53:20;;;;;;;11.23;0.70;;;;;;;10.08;100.00;92642.72;2100136;28;20031;-84
2021/08/08 01:54:21;;;;;;;1.73;0.70;;;;;;;9.98;100.00;92640.34;2099934;28;20308;-84
2021/08/08 01:55:22;;;;;;;1.20;0.93;;;;;;;9.98;100.00;92641.09;2104320;28;20802;-82
2021/08/08 01:56:23;;;;;;;4.93;0.82;;;;;;;10.02;100.00;92649.03;2117034;27;20039;-84
2021/08/08 01:57:24;;;;;;;1.30;0.60;;;;;;;9.93;100.00;92646.22;2104090;28;20046;-84
2021/08/08 01:58:27;;;;;;;3.58;1.00;;;;;;;9.90;100.00;92639.06;2099853;28;20020;-83
2021/08/08 01:59:28;;;;;;;0.82;0.55;;;;;;;9.84;100.00;92644.16;2100378;28;20021;-83
2021/08/08 02:00:29;;;;;;;2.40;0.70;;;;;;;9.76;100.00;92640.94;2099351;28;20028;-83
2021/08/08 02:01:30;;;;;;;1.63;0.70;;;;;;;9.78;100.00;92645.84;2092688;28;20025;-84
2021/08/08 02:02:31;;;;;;;1.10;0.60;;;;;;;9.75;100.00;92654.69;2091701;28;20029;-84
2021/08/08 02:03:34;;;;;;;1.80;0.70;;;;;;;9.74;100.00;92658.53;2112955;28;20476;-82
2021/08/08 02:04:35;;;;;;;1.10;1.00;;;;;;;9.74;100.00;92647.84;2100653;28;20024;-82
2021/08/08 02:06:44;;;;;;;;;;;;;;;9.70;100.00;92639.94;2145757;27;20121;-83
2021/08/08 02:07:45;;;;;;;2.90;0.85;;;;;;;9.73;100.00;92638.34;2119815;28;19915;-83
2021/08/08 02:08:45;;;;;;;0.98;0.40;;;;;;;9.71;100.00;92649.44;2115893;28;20027;-82
2021/08/08 02:09:47;;;;;;;1.42;0.60;;;;;;;9.66;100.00;92644.63;2129038;27;20448;-83
2021/08/08 02:10:48;;;;;;;3.00;0.68;;;;;;;9.69;100.00;92646.44;2111570;28;20028;-83
2021/08/08 02:11:49;;;;;;;2.50;0.80;;;;;;;9.68;100.00;92649.53;2111231;28;20106;-83
2021/08/08 02:12:50;;;;;;;2.25;0.88;;;;;;;9.65;100.00;92645.78;2111446;27;20035;-81
2021/08/08 02:13:51;;;;;;;4.57;0.80;;;;;;;9.60;100.00;92648.97;2111635;28;20366;-84
2021/08/08 02:14:51;;;;;;;4.70;0.82;;;;;;;9.57;100.00;92650.56;2111752;28;20032;-83
2021/08/08 02:15:53;;;;;;;2.38;0.82;;;;;;;9.68;100.00;92644.19;2111526;28;20408;-83
2021/08/08 02:16:54;;;;;;;5.47;0.70;;;;;;;9.52;100.00;92643.06;2111857;28;20494;-84
2021/08/08 02:17:55;;;;;;;1.50;0.70;;;;;;;9.40;100.00;92649.09;2103017;28;20032;-85
2021/08/08 02:18:56;;;;;;;0.98;0.73;;;;;;;9.44;100.00;92644.44;2120031;27;20068;-82
2021/08/08 02:19:56;;;;;;;2.30;0.50;;;;;;;9.39;100.00;92652.91;2110889;28;20016;-82
2021/08/08 02:20:57;;;;;;;3.80;1.20;;;;;;;9.36;100.00;92658.34;2094725;28;20021;-82
2021/08/08 02:22:01;;;;;;;1.02;0.70;;;;;;;9.24;100.00;92647.19;2103572;28;20375;-82
2021/08/08 02:23:03;;;;;;;1.00;0.70;;;;;;;9.33;100.00;92643.94;2111544;28;20031;-84
2021/08/08 02:24:04;;;;;;;1.10;0.50;;;;;;;9.37;100.00;92647.25;2103198;28;20024;-82
2021/08/08 02:25:05;;;;;;;2.28;0.70;;;;;;;9.27;100.00;92641.03;2103237;28;20020;-82
2021/08/08 02:26:06;;;;;;;0.60;0.60;;;;;;;9.29;100.00;92645.94;2103081;28;20032;-83
2021/08/08 02:27:07;;;;;;;1.38;0.80;;;;;;;9.28;100.00;92652.44;2103258;28;20500;-84
2021/08/08 02:28:08;;;;;;;2.10;0.60;;;;;;;9.30;100.00;92656.16;2124223;27;20054;-84
2021/08/08 02:29:09;;;;;;;1.05;0.60;;;;;;;9.33;100.00;92657.25;2111063;28;20023;-83
2021/08/08 02:30:11;;;;;;;1.50;0.68;;;;;;;9.30;100.00;92661.50;2094661;28;20488;-83
2021/08/08 02:31:12;;;;;;;1.83;0.63;;;;;;;9.31;100.00;92662.28;2102946;28;20031;-83
2021/08/08 02:32:15;;;;;;;1.70;0.60;;;;;;;9.27;100.00;92659.69;2094905;28;20025;-82
2021/08/08 02:33:16;;;;;;;6.70;0.70;;;;;;;9.26;100.00;92655.53;2094940;28;20506;-84
2021/08/08 02:34:17;;;;;;;7.90;0.80;;;;;;;9.27;100.00;92657.03;2102864;28;20028;-84
2021/08/08 02:35:18;;;;;;;1.75;0.60;;;;;;;9.24;100.00;92660.53;2102745;28;20111;-82
2021/08/08 02:36:19;;;;;;;1.15;0.60;;;;;;;9.21;100.00;92663.25;2094472;28;20435;-84
2021/08/08 02:37:20;;;;;;;0.70;0.60;;;;;;;9.22;100.00;92659.44;2094564;28;20239;-83
2021/08/08 02:38:21;;;;;;;2.50;0.82;;;;;;;9.13;100.00;92659.25;2094468;28;20067;-85
2021/08/08 02:39:22;;;;;;;2.03;0.55;;;;;;;9.11;100.00;92656.28;2103024;28;20127;-82
2021/08/08 02:40:23;;;;;;;0.50;0.50;;;;;;;9.03;100.00;92661.03;2102605;28;20134;-84
2021/08/08 02:41:24;;;;;;;6.00;0.90;;;;;;;9.04;100.00;92649.97;2094391;28;20082;-84
2021/08/08 02:42:25;;;;;;;2.15;0.57;;;;;;;8.96;100.00;92659.28;2104141;28;20081;-83
2021/08/08 02:43:26;;;;;;;1.48;0.40;;;;;;;8.96;100.00;92653.22;2111394;28;20040;-81
2021/08/08 02:44:26;;;;;;;0.77;0.60;;;;;;;8.99;100.00;92652.34;2103154;28;20028;-83
2021/08/08 02:45:27;;;;;;;1.00;0.68;;;;;;;8.97;100.00;92655.44;2111358;27;20031;-82
2021/08/08 02:46:29;;;;;;;2.22;0.52;;;;;;;8.95;100.00;92662.34;2110777;28;20028;-82
2021/08/08 02:47:30;;;;;;;0.82;0.50;;;;;;;8.97;100.00;92657.38;2094652;28;20055;-83
2021/08/08 02:48:32;;;;;;;1.58;0.60;;;;;;;9.01;100.00;92663.38;2094621;28;20029;-84
2021/08/08 02:49:33;;;;;;;3.08;0.57;;;;;;;8.96;100.00;92666.53;2103518;28;20421;-81
2021/08/08 02:50:34;;;;;;;0.80;0.65;;;;;;;8.94;100.00;92663.53;2103049;28;20366;-84
2021/08/08 02:51:35;;;;;;;6.57;0.57;;;;;;;8.91;100.00;92667.00;2093806;28;20024;-85
2021/08/08 02:52:40;;;;;;;3.05;0.60;;;;;;;8.87;100.00;92671.66;2090621;28;20036;-83
2021/08/08 02:53:41;;;;;;;0.52;0.40;;;;;;;9.13;100.00;92673.38;2103670;28;20036;-82
2021/08/08 02:54:42;;;;;;;1.45;0.65;;;;;;;9.12;100.00;92674.53;2102676;28;20105;-84
2021/08/08 02:55:43;;;;;;;0.82;0.50;;;;;;;9.12;100.00;92673.78;2094631;28;20024;-84
2021/08/08 02:56:44;;;;;;;3.08;0.70;;;;;;;9.08;100.00;92669.25;2102629;28;20028;-83
2021/08/08 02:57:45;;;;;;;1.60;0.70;;;;;;;9.13;100.00;92667.25;2102531;28;20024;-82
2021/08/08 02:58:46;;;;;;;3.40;0.50;;;;;;;9.12;100.00;92671.84;2102740;28;20023;-82
2021/08/08 02:59:47;;;;;;;2.85;0.70;;;;;;;9.13;100.00;92672.59;2102540;28;20511;-84
2021/08/08 03:00:48;;;;;;;5.75;0.77;;;;;;;9.10;100.00;92671.53;2094319;28;20445;-84
2021/08/08 03:01:49;;;;;;;1.73;0.50;;;;;;;9.04;100.00;92668.63;2102873;28;20028;-83
2021/08/08 03:02:49;;;;;;;1.15;0.68;;;;;;;8.96;100.00;92671.88;2106300;28;20012;-84
2021/08/08 03:03:50;;;;;;;2.25;0.68;;;;;;;8.96;100.00;92680.63;2104711;28;20032;-84
2021/08/08 03:04:51;;;;;;;1.50;0.60;;;;;;;8.96;100.00;92677.94;2094679;28;20028;-84
2021/08/08 03:05:52;;;;;;;1.52;0.60;;;;;;;8.95;100.00;92671.09;2102400;28;20024;-83
2021/08/08 03:06:53;;;;;;;2.13;0.60;;;;;;;8.95;100.00;92681.00;2119500;28;20472;-84
2021/08/08 03:07:54;;;;;;;1.45;0.50;;;;;;;8.95;100.00;92673.00;2102460;28;20047;-82
2021/08/08 03:08:55;;;;;;;2.75;0.55;;;;;;;8.97;100.00;92673.34;2102395;28;20028;-83
2021/08/08 03:09:56;;;;;;;1.58;0.50;;;;;;;8.93;100.00;92668.09;2102747;28;20024;-82
2021/08/08 03:10:57;;;;;;;0.43;0.40;;;;;;;8.88;100.00;92667.84;2102748;28;20024;-83
2021/08/08 03:11:58;;;;;;;2.05;0.70;;;;;;;8.93;100.00;92673.44;2094404;28;20132;-82
2021/08/08 03:12:59;;;;;;;0.77;0.50;;;;;;;8.89;100.00;92669.34;2102506;28;20127;-84
2021/08/08 03:14:00;;;;;;;4.15;0.60;;;;;;;8.86;100.00;92673.59;2102656;28;20501;-84
2021/08/08 03:15:01;;;;;;;0.70;0.50;;;;;;;8.87;100.00;92674.34;2110991;28;20024;-83
2021/08/08 03:16:03;;;;;;;0.50;0.50;;;;;;;8.82;100.00;92678.25;2111445;28;20032;-83
2021/08/08 03:17:04;;;;;;;0.40;0.40;;;;;;;8.79;100.00;92684.41;2119936;27;20023;-84
2021/08/08 03:18:06;;;;;;;2.80;0.57;;;;;;;8.73;100.00;92684.16;2105532;28;20440;-82
2021/08/08 03:19:07;;;;;;;1.25;0.52;;;;;;;8.78;100.00;92678.34;2097563;28;20047;-84
2021/08/08 03:20:09;;;;;;;0.47;0.45;;;;;;;8.68;100.00;92681.22;2096703;28;20055;-84
2021/08/08 03:21:10;;;;;;;3.05;0.60;;;;;;;8.69;100.00;92678.16;2097407;28;20435;-83
2021/08/08 03:22:11;;;;;;;3.10;0.52;;;;;;;8.79;100.00;92687.84;2105516;28;20031;-83
2021/08/08 03:23:12;;;;;;;0.63;0.52;;;;;;;8.86;100.00;92691.50;2105425;28;20027;-83
2021/08/08 03:24:13;;;;;;;3.00;0.60;;;;;;;8.87;100.00;92682.31;2097032;28;20028;-82
2021/08/08 03:25:14;;;;;;;1.17;0.70;;;;;;;8.91;100.00;92697.09;2097226;28;20591;-83
2021/08/08 03:26:15;;;;;;;1.88;0.60;;;;;;;8.91;100.00;92683.78;2096759;28;20020;-83
2021/08/08 03:27:16;;;;;;;8.00;0.77;;;;;;;8.94;100.00;92679.50;2096900;28;20029;-83
2021/08/08 03:28:17;;;;;;;2.38;0.68;;;;;;;8.93;100.00;92692.09;2096879;28;20029;-84
2021/08/08 03:29:18;;;;;;;2.15;0.60;;;;;;;8.93;100.00;92686.00;2105542;28;20106;-82
2021/08/08 03:30:19;;;;;;;1.48;0.47;;;;;;;8.95;100.00;92692.41;2105417;28;20032;-82
2021/08/08 03:31:20;;;;;;;3.30;0.60;;;;;;;8.99;100.00;92698.41;2105037;28;20077;-84
2021/08/08 03:32:21;;;;;;;3.78;0.50;;;;;;;9.02;100.00;92694.19;2096870;28;20877;-84
2021/08/08 03:33:22;;;;;;;2.78;0.60;;;;;;;9.03;100.00;92699.09;2088735;28;20036;-84
2021/08/08 03:34:23;;;;;;;4.30;0.65;;;;;;;9.08;100.00;92695.94;2105286;28;20377;-84
2021/08/08 03:35:24;;;;;;;5.40;0.68;;;;;;;9.10;100.00;92697.44;2105318;28;20032;-84
2021/08/08 03:36:24;;;;;;;1.42;0.68;;;;;;;9.07;100.00;92699.75;2096769;28;20024;-82
2021/08/08 03:37:25;;;;;;;1.95;0.60;;;;;;;9.05;100.00;92699.44;2096310;28;20109;-85
2021/08/08 03:38:26;;;;;;;4.15;0.50;;;;;;;9.01;100.00;92698.78;2096800;28;20481;-84
2021/08/08 03:39:27;;;;;;;3.92;0.65;;;;;;;9.00;100.00;92699.94;2097155;28;20037;-83
2021/08/08 03:40:28;;;;;;;1.95;0.60;;;;;;;9.05;100.00;92690.69;2105538;28;20193;-83
2021/08/08 03:41:29;;;;;;;2.28;0.50;;;;;;;9.00;100.00;92694.59;2105279;28;20469;-83
2021/08/08 03:42:30;;;;;;;4.80;1.13;;;;;;;8.99;100.00;92693.09;2097700;28;20036;-85
2021/08/08 03:43:31;;;;;;;1.25;0.60;;;;;;;8.98;100.00;92690.84;2096738;28;20060;-86
2021/08/08 03:44:32;;;;;;;1.17;0.60;;;;;;;9.03;100.00;92699.09;2097011;28;20503;-83
2021/08/08 03:45:33;;;;;;;0.85;0.40;;;;;;;8.95;100.00;92700.41;2113647;28;20477;-83
2021/08/08 03:46:35;;;;;;;2.35;0.60;;;;;;;9.00;100.00;92704.50;2100980;28;20020;-84
2021/08/08 03:47:36;;;;;;;0.60;0.60;;;;;;;9.06;100.00;92700.94;2088647;28;20024;-85
2021/08/08 03:48:37;;;;;;;1.25;0.50;;;;;;;9.02;100.00;92710.94;2096189;28;20025;-83
2021/08/08 03:49:38;;;;;;;3.92;0.80;;;;;;;8.97;100.00;92713.34;2096966;28;20028;-84
2021/08/08 03:50:39;;;;;;;3.30;0.60;;;;;;;8.92;100.00;92714.59;2097022;28;20024;-84
2021/08/08 03:51:41;;;;;;;7.70;1.55;;;;;;;9.04;100.00;92713.94;2096820;28;20031;-83
2021/08/08 03:52:41;;;;;;;3.03;0.70;;;;;;;8.97;100.00;92724.00;2088508;28;20060;-81
2021/08/08 03:53:42;;;;;;;4.07;0.68;;;;;;;8.94;100.00;92720.25;2088080;28;20024;-82
2021/08/08 03:54:44;;;;;;;6.57;0.80;;;;;;;8.95;100.00;92721.00;2096438;28;20025;-82
2021/08/08 03:55:45;;;;;;;3.67;0.60;;;;;;;9.03;100.00;92725.75;2105253;28;20024;-83
2021/08/08 03:56:45;;;;;;;2.65;0.70;;;;;;;8.95;100.00;92721.72;2096597;28;20017;-84
2021/08/08 03:57:46;;;;;;;7.53;0.70;;;;;;;8.90;100.00;92730.22;2096508;28;20021;-83
2021/08/08 03:58:47;;;;;;;2.67;0.75;;;;;;;8.95;100.00;92729.72;2088550;28;20124;-83
2021/08/08 03:59:48;;;;;;;4.28;0.68;;;;;;;8.96;100.00;92731.25;2096224;28;20047;-83
2021/08/08 04:00:49;;;;;;;10.65;0.82;;;;;;;9.02;100.00;92734.16;2104975;28;20054;-83
2021/08/08 04:01:50;;;;;;;4.25;0.80;;;;;;;9.04;100.00;92731.81;2096434;28;20552;-83
2021/08/08 04:02:51;;;;;;;2.30;0.70;;;;;;;9.05;100.00;92731.44;2098100;28;20024;-84
2021/08/08 04:03:52;;;;;;;1.73;0.60;;;;;;;9.02;100.00;92726.19;2096826;28;20040;-82
2021/08/08 04:04:53;;;;;;;1.85;0.60;;;;;;;8.93;100.00;92737.41;2096764;28;20048;-84
2021/08/08 04:05:54;;;;;;;1.48;0.50;;;;;;;8.94;100.00;92732.81;2104408;28;20165;-82
2021/08/08 04:06:55;;;;;;;2.25;0.47;;;;;;;8.91;100.00;92734.41;2104923;28;20074;-85
2021/08/08 04:07:56;;;;;;;1.00;0.60;;;;;;;8.97;100.00;92738.09;2104513;28;20508;-82
2021/08/08 04:08:56;;;;;;;3.60;0.60;;;;;;;8.97;100.00;92735.41;2096693;28;20074;-82
2021/08/08 04:09:57;;;;;;;4.57;0.82;;;;;;;9.01;100.00;92738.00;2091739;28;20076;-84
2021/08/08 04:10:58;;;;;;;1.35;0.70;;;;;;;8.99;100.00;92729.66;2100289;28;20409;-83
2021/08/08 04:11:59;;;;;;;1.75;0.60;;;;;;;8.95;100.00;92743.06;2100718;28;20025;-84
2021/08/08 04:13:00;;;;;;;2.42;0.70;;;;;;;8.96;100.00;92741.16;2104629;28;20024;-82
2021/08/08 04:14:01;;;;;;;1.75;0.60;;;;;;;8.96;100.00;92733.91;2104679;28;20054;-84
2021/08/08 04:15:03;;;;;;;2.28;0.60;;;;;;;8.90;100.00;92732.16;2088584;28;20037;-81
2021/08/08 04:16:04;;;;;;;1.02;0.60;;;;;;;8.83;100.00;92738.41;2096736;28;20063;-81
2021/08/08 04:17:05;;;;;;;2.70;0.70;;;;;;;8.87;100.00;92738.28;2096310;28;20032;-84
2021/08/08 04:18:06;;;;;;;2.55;0.80;;;;;;;8.81;100.00;92730.03;2104777;28;20392;-84
2021/08/08 04:19:07;;;;;;;4.75;0.65;;;;;;;8.80;100.00;92733.88;2104774;28;20047;-83
2021/08/08 04:20:09;;;;;;;0.73;0.68;;;;;;;8.77;100.00;92730.13;2096493;28;20028;-85
2021/08/08 04:21:10;;;;;;;4.30;0.93;;;;;;;8.77;100.00;92730.13;2104965;28;20503;-84
2021/08/08 04:22:10;;;;;;;1.50;0.55;;;;;;;8.71;100.00;92731.78;2088083;28;20105;-85
2021/08/08 04:23:11;;;;;;;1.25;0.80;;;;;;;8.72;100.00;92735.94;2104542;28;20028;-83
2021/08/08 04:24:12;;;;;;;1.73;0.80;;;;;;;8.72;100.00;92732.53;2097765;28;20412;-82
2021/08/08 04:25:13;;;;;;;2.22;0.60;;;;;;;8.66;100.00;92732.28;2092385;28;20037;-84
2021/08/08 04:26:14;;;;;;;0.60;0.60;;;;;;;8.65;100.00;92727.34;2096491;28;20036;-82
2021/08/08 04:27:15;;;;;;;1.70;0.70;;;;;;;8.61;100.00;92730.09;2088426;28;20036;-82
2021/08/08 04:28:16;;;;;;;1.40;0.63;;;;;;;8.54;100.00;92728.31;2087446;28;20444;-84
2021/08/08 04:29:18;;;;;;;3.03;0.60;;;;;;;8.54;100.00;92738.22;2087532;28;20059;-82
2021/08/08 04:30:18;;;;;;;0.60;0.60;;;;;;;8.55;100.00;92729.06;2088136;28;20140;-85
2021/08/08 04:31:19;;;;;;;5.97;0.70;;;;;;;8.50;100.00;92732.97;2088160;28;20509;-82
2021/08/08 04:32:21;;;;;;;3.20;0.82;;;;;;;8.44;100.00;92736.53;2096530;28;20035;-84
2021/08/08 04:33:21;;;;;;;0.80;0.60;;;;;;;8.42;100.00;92744.16;2096197;28;20077;-83
2021/08/08 04:34:22;;;;;;;0.80;0.60;;;;;;;8.37;100.00;92742.00;2100195;28;20458;-82
2021/08/08 04:35:23;;;;;;;1.38;0.50;;;;;;;8.36;100.00;92730.56;2088318;28;20040;-82
2021/08/08 04:36:24;;;;;;;5.80;0.77;;;;;;;8.32;100.00;92743.94;2104561;28;20103;-81
2021/08/08 04:37:25;;;;;;;3.05;0.75;;;;;;;8.36;100.00;92743.13;2104895;28;20031;-83
2021/08/08 04:38:26;;;;;;;0.63;0.63;;;;;;;8.34;100.00;92735.56;2112847;28;20020;-85
2021/08/08 04:39:27;;;;;;;2.00;0.50;;;;;;;8.30;100.00;92737.53;2095247;28;20032;-84
2021/08/08 04:40:28;;;;;;;0.50;0.50;;;;;;;8.26;100.00;92740.25;2088118;28;20075;-84
2021/08/08 04:41:29;;;;;;;2.78;0.70;;;;;;;8.22;100.00;92736.16;2096375;28;20020;-85
2021/08/08 04:42:35;;;;;;;1.70;0.70;;;;;;;8.24;100.00;92731.16;2097605;28;20017;-82
2021/08/08 04:43:36;;;;;;;6.05;0.80;;;;;;;8.23;100.00;92737.66;2101877;27;20085;-82
2021/08/08 04:44:37;;;;;;;3.10;0.85;;;;;;;8.25;100.00;92738.75;2113202;28;20019;-82
2021/08/08 04:45:38;;;;;;;1.55;0.70;;;;;;;8.24;100.00;92733.84;2095941;28;20025;-83
2021/08/08 04:46:39;;;;;;;1.15;0.55;;;;;;;8.24;100.00;92742.56;2096229;28;20032;-84
2021/08/08 04:47:40;;;;;;;2.05;0.63;;;;;;;8.20;100.00;92751.78;2104897;28;20028;-82
2021/08/08 04:48:41;;;;;;;3.45;0.60;;;;;;;8.23;100.00;92750.97;2096061;28;20081;-84
2021/08/08 04:49:41;;;;;;;1.30;0.75;;;;;;;8.29;100.00;92750.06;2096137;28;20485;-85
2021/08/08 04:50:42;;;;;;;1.42;0.70;;;;;;;8.36;100.00;92751.84;2095974;28;20026;-84